Nearby METAR Reports

 

KIAG - Niagara Falls, New York, USA
Distance from station: W 12mi, 20km
Updated: 04/28/2017 5:53am
Overcast
Overcast
 Wind from SW
Wind: SW 10 mph , 17 km/h
Temperature: 48°F , 9°C
Wind Chill: 44°F , 7°C
Dew Point: 43°F , 6°C
Humidity: 82%
Barometer: 1013.2 hPa
Clouds: Overcast
Visibility: 10 miles , 16 km
Cloud details: Few Clouds 2800 ft
Overcast 3400 ft
2017/04/28 09:53 KIAG 280953Z AUTO 22009KT 10SM FEW028 OVC034 09/06 A2992 RMK AO2 SLP132 T00940056
KBUF - Buffalo/Cheektow, New York, USA
Distance from station: S 13mi, 21km
Updated: 04/28/2017 5:54am
Overcast
Overcast
 Wind from WSW
Wind: WSW 12 mph , 19 km/h
Temperature: 48°F , 9°C
Wind Chill: 43°F , 6°C
Dew Point: 39°F , 4°C
Humidity: 71%
Barometer: 1013.5 hPa
Clouds: Overcast
Visibility: 10 miles , 16 km
Cloud details: Overcast 3500 ft
2017/04/28 09:54 KBUF 280954Z 24010KT 10SM OVC035 09/04 A2993 RMK AO2 SLP135 T00940044 $
 
KROC - Rochester, New York, USA
Distance from station: E 51mi, 82km
Updated: 04/28/2017 5:54am
Few Clouds
Few Clouds
 Wind from WSW
Wind: WSW 12 mph , 19 km/h
Temperature: 50°F , 10°C
Wind Chill: 45°F , 7°C
Dew Point: 43°F , 6°C
Humidity: 76%
Barometer: 1013.9 hPa
Clouds: Few Clouds
Visibility: 10 miles , 16 km
Cloud details: Few Clouds 20000 ft
2017/04/28 09:54 KROC 280954Z 24010KT 10SM FEW200 10/06 A2994 RMK AO2 SLP139 T01000061
CYSN - St. Catharines A, Ontario, Canada
Distance from station: WNW 25mi, 40km
Updated: 04/27/2017 9:00pm
NOT Current
Light rain, Showers, Mostly cloudy
Light rain, Showers, Mostly cloudy
 Wind from SSW
Wind: SSW 14 mph , 22 km/h
Temperature: 63°F , 17°C
Dew Point: 59°F , 15°C
Humidity: 88%
Barometer: 1004.1 hPa
Summary: Light rain, Showers
Clouds: Mostly cloudy
Visibility: 8 miles , 13 km
Cloud details: Few Clouds 2400 ft
Mostly cloudy 10000 ft
2017/04/28 01:00 CYSN 280100Z 20012KT 8SM -SHRA FEW024 BKN100 17/15 A2965 RMK SF1ACC6 LAST STFD OBS / NEXT 281100 UTC PRESRR SLP043 DENSITY ALT 800FT
 
KOLE - Olean, New York, USA
Distance from station: SSE 63mi, 102km
Updated: 03/21/2017 11:55am
NOT Current
Clear
Clear
 Wind from WNW
Wind: WNW 10 mph , 17 km/h, Gust: 21 mph , 33 km/h
Temperature: 41°F , 5°C
Wind Chill: 35°F , 2°C
Dew Point: 27°F , -3°C
Humidity: 57%
Barometer: 1013.9 hPa
Clouds: Clear
Visibility: 10 miles , 16 km
2017/03/21 15:55 KOLE 211555Z AUTO 29009G18KT 10SM CLR 05/M03 A2994 RMK AO2
KJHW - Jamestown, New York, USA
Distance from station: SSW 74mi, 119km
Updated: 04/28/2017 5:55am
Overcast
Overcast
 Wind from SW
Wind: SW 6 mph , 9 km/h
Temperature: 45°F , 7°C
Wind Chill: 42°F , 6°C
Dew Point: 37°F , 3°C
Humidity: 76%
Barometer: 1013.9 hPa
Clouds: Overcast
Visibility: 10 miles , 16 km
Cloud details: Overcast 2000 ft
2017/04/28 09:55 KJHW 280955Z AUTO 23005KT 10SM OVC020 07/03 A2994 RMK AO1
 
CWWZ - Port Weller (mar, Ontario, Canada
Distance from station: WNW 28mi, 45km
Updated: 04/28/2017 6:00am

 Wind from SSW
Wind: SSW 6 mph , 9 km/h
Temperature: 50°F , 10°C
Wind Chill: 48°F , 9°C
Dew Point: 45°F , 7°C
Humidity: 82%
2017/04/28 10:00 CWWZ 281000Z AUTO 21005KT 10/07 RMK AO1 SLP134 T01020067 51028
CWPC - Port Colborne(Au, Ontario, Canada
Distance from station: WSW 33mi, 53km
Updated: 04/28/2017 6:00am

 Wind from WSW
Wind: WSW 17 mph , 28 km/h
Temperature: 46°F , 8°C
Wind Chill: 39°F , 4°C
Dew Point: 41°F , 5°C
Humidity: 82%
2017/04/28 10:00 CWPC 281000Z AUTO 24015KT 08/05 RMK AO1 PK WND 24021/0923 SLP140 T00780049 51024
 
CXVN - Vineland (au8), Ontario, Canada
Distance from station: W 36mi, 58km
Updated: 04/28/2017 6:00am

 Wind from SSW
Wind: SSW 8 mph , 13 km/h
Temperature: 50°F , 10°C
Wind Chill: 47°F , 8°C
Dew Point: 43°F , 6°C
Humidity: 76%
2017/04/28 10:00 CXVN 281000Z AUTO 21007KT 10/06 RMK AO1 SLP126 T00990064 51029
CYTZ - Toronto Il Vor, Ontario, Canada
Distance from station: NW 50mi, 81km
Updated: 04/28/2017 6:00am
Overcast
Overcast
 Wind from W
Wind: W 5 mph , 7 km/h
Temperature: 50°F , 10°C
Wind Chill: 48°F , 9°C
Dew Point: 43°F , 6°C
Humidity: 76%
Barometer: 1012.9 hPa
Clouds: Overcast
Visibility: 9 miles , 14 km
Cloud details: Overcast 4400 ft
2017/04/28 10:00 CYTZ 281000Z AUTO 26004KT 9SM OVC044 10/06 A2991 RMK SLP130
 
CXTO - Toronto City, Ontario, Canada
Distance from station: NW 52mi, 84km
Updated: 04/28/2017 6:00am

 
Temperature: 52°F , 11°C
Dew Point: 39°F , 4°C
Humidity: 62%
2017/04/28 10:00 CXTO 281000Z AUTO 11/04 RMK AO1 SLP126 T01060040 51029
KDKK - Dunkirk, New York, USA
Distance from station: SW 52mi, 84km
Updated: 04/28/2017 5:53am
Clear
Clear
 Wind from SW
Wind: SW 5 mph , 7 km/h
Temperature: 46°F , 8°C
Wind Chill: 44°F , 7°C
Dew Point: 41°F , 5°C
Humidity: 82%
Barometer: 1013.9 hPa
Clouds: Clear
Visibility: 10 miles , 16 km
2017/04/28 09:53 KDKK 280953Z AUTO 22004KT 10SM CLR 08/05 A2994 RMK AO2 SLP140 T00830050 $
 
CYOO - Oshawa, Ontario, Canada
Distance from station: N 56mi, 90km
Updated: 04/28/2017 6:00am
Overcast
Overcast
 Wind from W
Wind: W 6 mph , 9 km/h
Temperature: 48°F , 9°C
Wind Chill: 45°F , 7°C
Dew Point: 41°F , 5°C
Humidity: 76%
Barometer: 1012.2 hPa
Clouds: Overcast
Visibility: 9 miles , 14 km
Cloud details: Overcast 4300 ft
2017/04/28 10:00 CYOO 281000Z AUTO 28005KT 9SM OVC043 09/05 A2989 RMK SLP125
CWWB - Burlington Piers, Ontario, Canada
Distance from station: WNW 56mi, 91km
Updated: 04/28/2017 6:00am

 Wind from SW
Wind: SW 3 mph , 6 km/h
Temperature: 52°F , 11°C
Dew Point: 43°F , 6°C
Humidity: 72%
2017/04/28 10:00 CWWB 281000Z AUTO 22003KT 11/06 RMK AO1 SLP129 T01080058 51027
 
CYYZ - Toronto/Pearson, Ontario, Canada
Distance from station: NW 60mi, 96km
Updated: 04/28/2017 6:00am
Few Clouds
Few Clouds
 Wind from SW
Wind: SW 3 mph , 6 km/h
Temperature: 48°F , 9°C
Dew Point: 39°F , 4°C
Humidity: 71%
Barometer: 1012.5 hPa
Clouds: Few Clouds
Visibility: 15 miles , 24 km
Cloud details: Few Clouds 4200 ft
Few Clouds 8000 ft
2017/04/28 10:00 CYYZ 281000Z 23003KT 15SM FEW042 FEW080 09/04 A2990 RMK SC1AC1 SLP128
CYKZ - Toronto Buttonvi, Ontario, Canada
Distance from station: NW 62mi, 99km
Updated: 04/28/2017 6:00am
Partly cloudy
Partly cloudy
 Wind from SW
Wind: SW 3 mph , 6 km/h
Temperature: 48°F , 9°C
Dew Point: 39°F , 4°C
Humidity: 71%
Barometer: 1012.5 hPa
Clouds: Partly cloudy
Visibility: 15 miles , 24 km
Cloud details: Partly cloudy 3900 ft
2017/04/28 10:00 CYKZ 281000Z 22003KT 210V300 15SM SCT039 09/04 A2990 RMK SC3 SLP126
 
CXHM - Hamilton Rbg Cs, Ontario, Canada
Distance from station: W 62mi, 100km
Updated: 04/28/2017 6:00am

 Wind from W
Wind: W 1 mph , 2 km/h
Temperature: 48°F , 9°C
Dew Point: 46°F , 8°C
Humidity: 94%
2017/04/28 10:00 CXHM 281000Z AUTO 26001KT 09/08 RMK AO1 SLP122 T00850075 51026
KDSV - Dansville, New York, USA
Distance from station: SE 62mi, 100km
Updated: 04/28/2017 5:54am
Clear
Clear
 Wind from calm
Wind: Calm
Temperature: 52°F , 11°C
Dew Point: 43°F , 6°C
Humidity: 72%
Barometer: 1014.9 hPa
Clouds: Clear
Visibility: 10 miles , 16 km
2017/04/28 09:54 KDSV 280954Z AUTO 00000KT 10SM CLR 11/06 A2997 RMK AO2 SLP155 T01110061
 
CYHM - Hamilton Airport, Ontario, Canada
Distance from station: W 63mi, 101km
Updated: 04/28/2017 6:00am
Mostly cloudy
Mostly cloudy
 Wind from SSW
Wind: SSW 6 mph , 9 km/h
Temperature: 46°F , 8°C
Wind Chill: 43°F , 6°C
Dew Point: 43°F , 6°C
Humidity: 87%
Barometer: 1012.9 hPa
Clouds: Mostly cloudy
Visibility: 15 miles , 24 km
Cloud details: Partly cloudy 2000 ft
Mostly cloudy 2700 ft
2017/04/28 10:00 CYHM 281000Z 21005KT 15SM SCT020 BKN027 08/06 A2991 RMK CU3SC3 SLP132
CWNC - Cobourg (mars), Ontario, Canada
Distance from station: NNE 63mi, 102km
Updated: 04/28/2017 6:00am

 Wind from W
Wind: W 6 mph , 9 km/h
Temperature: 46°F , 8°C
Wind Chill: 43°F , 6°C
Dew Point: 41°F , 5°C
Humidity: 82%
2017/04/28 10:00 CWNC 281000Z AUTO 28005KT 08/05 RMK AO1 SLP122 T00770054 51033